Time;durP1;ratioP1;P1;durP2;ratioP2;P2;SDS_P1;SDS_P2;PMS_P1;PMS_P2;Temp;Humidity;BMP_temperature;BMP_pressure;BME280_temperature;BME280_humidity;BME280_pressure;Samples;Min_cycle;Max_cycle;Signal;HPM_P1;HPM_P2
2023/05/12 00:01:53;;;;;;;7.30;3.28;;;;;;;10.84;100.00;100337.81;5041092;28;20033;-67
2023/05/12 00:04:19;;;;;;;4.70;3.15;;;;;;;10.97;100.00;100348.88;5039306;28;20048;-67
2023/05/12 00:06:44;;;;;;;5.72;3.40;;;;;;;10.95;100.00;100350.03;5039043;28;20389;-67
2023/05/12 00:09:10;;;;;;;8.18;3.97;;;;;;;10.99;100.00;100349.56;5038335;28;20044;-67
2023/05/12 00:11:36;;;;;;;6.32;3.35;;;;;;;10.88;100.00;100337.38;5041713;28;20426;-67
2023/05/12 00:14:02;;;;;;;6.80;4.53;;;;;;;11.21;100.00;100350.94;5042566;28;20037;-67
2023/05/12 00:16:28;;;;;;;8.32;4.90;;;;;;;11.29;100.00;100342.25;5037965;28;20071;-67
2023/05/12 00:18:54;;;;;;;6.38;4.30;;;;;;;11.28;100.00;100343.22;5038406;28;20630;-67
2023/05/12 00:21:19;;;;;;;6.43;4.13;;;;;;;11.31;100.00;100346.41;5039322;28;20282;-67
2023/05/12 00:23:45;;;;;;;4.35;3.40;;;;;;;11.16;100.00;100350.56;5038719;28;20067;-64
2023/05/12 00:26:10;;;;;;;4.97;3.67;;;;;;;11.31;100.00;100343.75;5037849;28;20049;-64
2023/05/12 00:28:36;;;;;;;5.35;3.83;;;;;;;11.47;100.00;100346.56;5038562;28;20041;-67
2023/05/12 00:31:02;;;;;;;5.70;3.38;;;;;;;11.55;100.00;100337.84;5038344;28;20072;-63
2023/05/12 00:33:29;;;;;;;4.60;3.60;;;;;;;11.61;100.00;100339.88;5040004;28;20044;-64
2023/05/12 00:35:54;;;;;;;4.65;3.38;;;;;;;11.72;99.23;100346.75;5041693;28;20259;-63
2023/05/12 00:38:20;;;;;;;5.45;3.65;;;;;;;11.59;99.59;100346.34;5038579;28;20033;-67
2023/05/12 00:40:45;;;;;;;7.35;3.78;;;;;;;11.37;100.00;100352.91;5042000;28;20045;-67
2023/05/12 00:43:11;;;;;;;5.93;3.65;;;;;;;11.39;100.00;100343.81;5041827;28;20466;-67
2023/05/12 00:45:37;;;;;;;4.78;3.70;;;;;;;11.55;100.00;100353.75;5035753;28;20057;-67
2023/05/12 00:48:05;;;;;;;4.43;3.85;;;;;;;11.52;100.00;100356.72;5034333;28;20042;-67
2023/05/12 00:50:31;;;;;;;6.03;3.78;;;;;;;11.66;100.00;100355.34;5030735;28;21213;-67
2023/05/12 00:52:57;;;;;;;4.75;4.18;;;;;;;11.70;99.51;100354.88;5036344;28;20113;-67
2023/05/12 00:55:24;;;;;;;3.83;3.42;;;;;;;11.90;98.22;100360.03;5035125;28;20083;-67
2023/05/12 00:57:50;;;;;;;5.75;3.95;;;;;;;12.08;98.00;100364.28;5038034;28;20362;-67
2023/05/12 01:00:16;;;;;;;4.28;3.17;;;;;;;12.23;97.31;100361.06;5038813;28;20041;-67
2023/05/12 01:02:42;;;;;;;5.82;3.85;;;;;;;12.26;96.51;100356.25;5037347;28;20048;-67
2023/05/12 01:05:08;;;;;;;5.35;4.25;;;;;;;12.40;95.65;100365.47;5039664;28;20033;-67
2023/05/12 01:07:35;;;;;;;7.13;4.65;;;;;;;12.44;95.21;100361.50;5035647;28;20029;-67
2023/05/12 01:10:01;;;;;;;6.95;4.50;;;;;;;12.58;95.01;100362.75;5038749;28;20049;-67
2023/05/12 01:12:27;;;;;;;4.55;3.53;;;;;;;12.65;94.41;100371.75;5038925;28;20059;-67
2023/05/12 01:14:55;;;;;;;4.63;3.65;;;;;;;12.72;94.05;100370.94;5036063;28;20041;-67
2023/05/12 01:17:26;;;;;;;5.43;3.80;;;;;;;12.76;93.59;100366.13;5039375;28;20401;-64
2023/05/12 01:19:56;;;;;;;6.38;3.90;;;;;;;12.80;92.71;100364.81;5037317;28;20041;-64
2023/05/12 01:22:22;;;;;;;7.20;4.25;;;;;;;12.83;92.43;100363.66;5035803;28;20079;-64
2023/05/12 01:24:56;;;;;;;5.40;4.30;;;;;;;12.79;92.20;100352.53;5036162;28;20209;-64
2023/05/12 01:27:24;;;;;;;;;;;;;;;12.84;92.48;100362.66;5035748;28;20056;-67
2023/05/12 01:29:51;;;;;;;5.25;3.78;;;;;;;12.72;93.60;100364.78;5034815;28;19954;-65
2023/05/12 01:32:17;;;;;;;7.13;3.90;;;;;;;12.72;93.49;100364.78;5034164;28;20042;-67
2023/05/12 01:34:43;;;;;;;4.63;3.40;;;;;;;12.73;93.20;100361.97;5034599;28;20317;-64
2023/05/12 01:37:10;;;;;;;7.10;4.30;;;;;;;12.76;93.54;100356.34;5034935;28;20025;-64
2023/05/12 01:39:36;;;;;;;7.05;3.90;;;;;;;12.78;93.33;100359.66;5033642;28;20044;-64
2023/05/12 01:42:03;;;;;;;6.88;4.07;;;;;;;12.81;92.51;100361.16;5034113;28;20041;-63
2023/05/12 01:44:28;;;;;;;6.88;3.97;;;;;;;12.84;92.13;100354.69;5037548;28;20105;-63
2023/05/12 01:46:55;;;;;;;5.75;3.88;;;;;;;12.85;92.20;100353.72;5037437;28;20059;-64
2023/05/12 01:49:21;;;;;;;7.40;4.28;;;;;;;12.84;92.48;100358.19;5033280;28;20033;-65
2023/05/12 01:51:46;;;;;;;5.63;3.67;;;;;;;12.77;91.25;100362.47;5034653;28;20057;-65
2023/05/12 01:54:12;;;;;;;6.30;3.80;;;;;;;12.68;91.50;100360.78;5036928;28;20148;-65
2023/05/12 01:56:37;;;;;;;4.97;3.47;;;;;;;12.62;91.52;100353.47;5038108;28;20029;-64
2023/05/12 01:59:03;;;;;;;6.57;3.90;;;;;;;12.58;92.61;100362.75;5035923;28;20041;-64
2023/05/12 02:01:31;;;;;;;7.15;4.03;;;;;;;12.58;92.13;100349.47;5033599;28;20047;-64
2023/05/12 02:03:57;;;;;;;5.40;3.97;;;;;;;12.53;92.55;100355.25;5034152;28;20060;-64
2023/05/12 02:06:23;;;;;;;5.55;4.00;;;;;;;12.53;93.17;100346.44;5035522;28;20521;-64
2023/05/12 02:08:49;;;;;;;6.72;4.20;;;;;;;12.48;93.19;100354.88;5034947;28;20120;-64
2023/05/12 02:11:15;;;;;;;4.57;3.90;;;;;;;12.43;93.49;100339.41;5033534;28;20034;-64
2023/05/12 02:13:43;;;;;;;7.05;3.92;;;;;;;12.47;94.18;100340.75;5034390;28;20041;-64
2023/05/12 02:16:09;;;;;;;5.95;3.67;;;;;;;12.24;93.19;100313.09;5034776;28;20046;-64
2023/05/12 02:18:35;;;;;;;6.95;3.70;;;;;;;12.43;93.49;100347.38;5037435;28;20049;-64
2023/05/12 02:21:01;;;;;;;8.65;4.22;;;;;;;12.47;92.89;100343.41;5036401;28;20351;-64
2023/05/12 02:23:26;;;;;;;5.90;3.92;;;;;;;12.52;92.01;100350.09;5034252;28;20031;-65
2023/05/12 02:25:52;;;;;;;4.57;3.65;;;;;;;12.55;91.55;100352.44;5034052;28;20045;-67
2023/05/12 02:28:17;;;;;;;6.40;3.70;;;;;;;12.57;91.87;100350.47;5035261;28;20223;-67
2023/05/12 02:30:47;;;;;;;8.70;4.32;;;;;;;12.59;91.10;100349.31;5036415;28;20048;-67
2023/05/12 02:33:17;;;;;;;4.90;3.70;;;;;;;12.62;90.96;100345.50;5034554;28;20033;-67
2023/05/12 02:35:43;;;;;;;6.22;3.78;;;;;;;12.64;90.99;100348.81;5033941;28;20145;-63
2023/05/12 02:38:09;;;;;;;5.47;3.70;;;;;;;12.65;91.71;100346.00;5030822;28;20286;-67
2023/05/12 02:40:35;;;;;;;6.72;3.90;;;;;;;12.62;91.82;100348.16;5033412;28;20343;-67
2023/05/12 02:43:00;;;;;;;6.00;4.40;;;;;;;12.59;90.93;100351.97;5033882;28;20056;-67
2023/05/12 02:45:26;;;;;;;5.93;4.68;;;;;;;12.56;90.94;100343.47;5033907;28;20228;-67
2023/05/12 02:47:51;;;;;;;7.68;4.20;;;;;;;12.51;92.20;100343.13;5034332;28;20033;-67
2023/05/12 02:50:17;;;;;;;7.97;4.82;;;;;;;12.50;92.69;100333.50;5032255;28;20331;-67
2023/05/12 02:52:42;;;;;;;8.30;4.30;;;;;;;12.56;91.99;100346.97;5033361;28;20048;-67
2023/05/12 02:55:08;;;;;;;7.97;4.68;;;;;;;12.59;92.16;100345.81;5033111;28;20041;-67
2023/05/12 02:57:34;;;;;;;6.63;3.90;;;;;;;12.64;92.55;100344.34;5033014;28;20452;-67
2023/05/12 03:00:00;;;;;;;5.63;3.95;;;;;;;12.69;92.04;100359.81;5033876;28;20037;-67
2023/05/12 03:02:26;;;;;;;8.32;4.50;;;;;;;12.72;91.39;100354.16;5033763;28;20044;-67
2023/05/12 03:04:52;;;;;;;5.35;3.67;;;;;;;12.75;91.67;100360.00;5036878;28;20033;-67
2023/05/12 03:07:17;;;;;;;7.18;4.18;;;;;;;12.81;91.75;100361.16;5034939;28;20319;-68
2023/05/12 03:09:43;;;;;;;4.40;3.45;;;;;;;12.85;90.75;100357.19;5033863;28;20115;-68
2023/05/12 03:12:08;;;;;;;6.78;3.88;;;;;;;12.82;90.11;100359.34;5032574;28;20030;-67
2023/05/12 03:14:34;;;;;;;4.82;3.63;;;;;;;12.86;90.00;100364.19;5033651;28;20123;-67
2023/05/12 03:16:59;;;;;;;5.05;3.75;;;;;;;12.84;89.11;100371.47;5033311;28;20038;-67
2023/05/12 03:19:26;;;;;;;7.32;3.90;;;;;;;12.86;89.52;100374.81;5031880;28;20117;-68
2023/05/12 03:21:52;;;;;;;5.38;4.30;;;;;;;12.89;90.38;100373.66;5033596;28;20044;-67
2023/05/12 03:24:18;;;;;;;4.63;3.75;;;;;;;12.89;90.46;100378.97;5027962;28;20449;-67
2023/05/12 03:26:43;;;;;;;5.22;3.90;;;;;;;12.92;89.79;100374.16;5032531;28;20041;-68
2023/05/12 03:29:09;;;;;;;4.93;3.95;;;;;;;12.86;89.56;100380.13;5034322;28;20120;-67
2023/05/12 03:31:35;;;;;;;6.88;3.65;;;;;;;12.83;89.13;100383.09;5035392;28;20037;-68
2023/05/12 03:34:00;;;;;;;5.60;4.05;;;;;;;12.78;88.95;100386.25;5031821;28;20041;-67
2023/05/12 03:36:26;;;;;;;5.10;3.78;;;;;;;12.81;89.67;100385.09;5033353;28;20559;-67
2023/05/12 03:38:51;;;;;;;6.63;4.38;;;;;;;12.85;89.71;100386.44;5032963;28;20037;-67
2023/05/12 03:41:17;;;;;;;8.50;4.13;;;;;;;12.83;90.29;100383.09;5032099;28;20283;-68
2023/05/12 03:43:42;;;;;;;6.28;3.95;;;;;;;12.89;90.58;100393.09;5033219;28;20043;-64
2023/05/12 03:46:08;;;;;;;5.60;4.10;;;;;;;12.89;90.25;100387.78;5030956;28;20049;-64
2023/05/12 03:48:33;;;;;;;7.07;4.20;;;;;;;12.93;89.88;100393.59;5033730;28;20095;-69
2023/05/12 03:50:59;;;;;;;4.65;4.03;;;;;;;12.94;89.55;100392.59;5032112;28;20041;-68
2023/05/12 03:53:24;;;;;;;5.68;3.80;;;;;;;12.98;89.56;100404.59;5036685;28;20045;-66
2023/05/12 03:55:50;;;;;;;5.88;4.07;;;;;;;13.01;89.81;100406.91;5036375;28;20034;-65
2023/05/12 03:58:15;;;;;;;7.35;4.45;;;;;;;13.04;89.26;100406.59;5032655;28;20243;-64
2023/05/12 04:00:41;;;;;;;6.20;4.13;;;;;;;13.06;89.46;100409.91;5031878;28;20074;-65
2023/05/12 04:03:06;;;;;;;4.82;3.90;;;;;;;13.07;89.82;100414.25;5032539;28;20386;-67
2023/05/12 04:05:32;;;;;;;5.05;3.55;;;;;;;13.06;90.56;100405.44;5027495;28;20033;-65
2023/05/12 04:07:57;;;;;;;4.53;3.72;;;;;;;12.97;89.24;100403.75;5031960;28;20299;-68
2023/05/12 04:10:23;;;;;;;5.60;3.85;;;;;;;13.01;89.23;100406.91;5032102;28;20033;-65
2023/05/12 04:12:48;;;;;;;3.80;3.40;;;;;;;13.01;89.64;100410.41;5035603;28;20090;-68
2023/05/12 04:15:14;;;;;;;6.07;3.78;;;;;;;13.02;88.97;100414.72;5033749;28;20045;-65
2023/05/12 04:17:40;;;;;;;7.82;3.95;;;;;;;13.02;88.56;100417.38;5033127;28;20052;-68
2023/05/12 04:20:06;;;;;;;6.03;3.83;;;;;;;12.98;91.04;100415.22;5036587;28;20037;-65
2023/05/12 04:22:32;;;;;;;5.97;4.28;;;;;;;12.93;90.90;100413.03;5039862;28;20033;-68
2023/05/12 04:24:57;;;;;;;5.25;3.75;;;;;;;12.92;91.18;100416.69;5039720;28;20034;-64
2023/05/12 04:27:23;;;;;;;6.35;3.83;;;;;;;12.90;89.67;100409.88;5040580;28;20034;-64
2023/05/12 04:29:48;;;;;;;4.72;3.40;;;;;;;12.90;88.08;100416.03;5040211;28;20049;-65
2023/05/12 04:32:14;;;;;;;5.53;3.72;;;;;;;12.87;89.31;100410.19;5039698;28;20041;-68
2023/05/12 04:34:39;;;;;;;5.55;3.50;;;;;;;12.89;88.84;100406.38;5040760;28;20273;-65
2023/05/12 04:37:04;;;;;;;5.00;3.30;;;;;;;12.90;89.09;100402.72;5040767;28;20045;-64
2023/05/12 04:39:30;;;;;;;5.53;3.38;;;;;;;12.93;89.98;100406.88;5040304;28;20038;-65
2023/05/12 04:41:56;;;;;;;4.80;3.40;;;;;;;13.02;88.58;100406.75;5040823;28;20079;-65
2023/05/12 04:44:21;;;;;;;4.50;3.08;;;;;;;13.03;88.87;100403.09;5040677;28;20331;-64
2023/05/12 04:46:48;;;;;;;8.02;3.40;;;;;;;13.09;87.07;100399.78;5040814;28;20047;-65
2023/05/12 04:49:13;;;;;;;5.68;2.97;;;;;;;12.87;86.41;100394.25;5040430;28;20056;-66
2023/05/12 04:51:41;;;;;;;3.33;2.92;;;;;;;12.88;86.97;100395.91;5040357;28;20034;-64
2023/05/12 04:54:09;;;;;;;8.20;3.40;;;;;;;12.78;86.13;100394.22;5040028;28;20042;-66
2023/05/12 04:56:35;;;;;;;6.03;3.50;;;;;;;12.67;87.63;100389.19;5040499;28;20040;-65
2023/05/12 04:59:00;;;;;;;4.32;3.33;;;;;;;12.67;89.25;100393.66;5040610;28;20042;-66
2023/05/12 05:01:26;;;;;;;5.32;3.80;;;;;;;12.60;87.72;100404.09;5040030;28;20156;-65
2023/05/12 05:03:51;;;;;;;6.53;3.60;;;;;;;12.62;88.00;100402.13;5040143;28;20041;-64
2023/05/12 05:06:17;;;;;;;4.68;3.17;;;;;;;12.47;89.48;100404.50;5039997;28;20536;-65
2023/05/12 05:08:42;;;;;;;4.45;3.35;;;;;;;12.70;87.84;100404.81;5039676;28;20044;-65
2023/05/12 05:11:08;;;;;;;5.15;3.40;;;;;;;12.61;87.87;100404.94;5039966;28;20342;-66
2023/05/12 05:13:34;;;;;;;4.72;3.97;;;;;;;12.71;87.79;100405.66;5040424;28;20033;-64
2023/05/12 05:15:59;;;;;;;5.55;3.00;;;;;;;12.67;86.74;100410.44;5040323;28;20434;-64
2023/05/12 05:18:25;;;;;;;4.97;3.25;;;;;;;12.74;86.59;100407.97;5040022;28;20102;-64
2023/05/12 05:20:51;;;;;;;4.80;3.65;;;;;;;12.65;88.38;100408.94;5040066;28;20116;-65
2023/05/12 05:23:17;;;;;;;5.22;3.42;;;;;;;12.47;88.89;100408.97;5040146;28;20033;-65
2023/05/12 05:25:42;;;;;;;6.15;3.85;;;;;;;12.35;88.98;100404.94;5039864;28;20037;-65
2023/05/12 05:28:08;;;;;;;5.15;3.30;;;;;;;12.46;88.74;100413.47;5040372;28;20049;-64
2023/05/12 05:30:34;;;;;;;6.43;3.65;;;;;;;12.54;88.73;100411.88;5039321;28;20033;-64
2023/05/12 05:32:59;;;;;;;4.97;3.67;;;;;;;12.65;88.22;100416.91;5029448;28;20041;-65
2023/05/12 05:35:25;;;;;;;7.38;3.80;;;;;;;12.67;87.43;100417.59;5019418;28;20045;-64
2023/05/12 05:37:52;;;;;;;6.03;4.00;;;;;;;12.75;87.78;100423.75;5020463;28;20083;-65
2023/05/12 05:40:18;;;;;;;5.30;3.90;;;;;;;12.91;87.37;100427.47;5029259;28;20033;-65
2023/05/12 05:42:43;;;;;;;7.03;3.85;;;;;;;13.03;86.70;100419.06;5039351;28;20041;-64
2023/05/12 05:45:09;;;;;;;5.80;3.10;;;;;;;13.13;86.30;100426.88;5039468;28;20049;-64
2023/05/12 05:47:36;;;;;;;5.13;3.13;;;;;;;12.90;87.08;100421.34;5039021;28;20037;-65
2023/05/12 05:50:02;;;;;;;4.82;3.42;;;;;;;12.90;87.76;100415.19;5039549;28;20041;-64
2023/05/12 05:52:28;;;;;;;4.05;3.38;;;;;;;13.24;86.62;100417.81;5039339;28;20323;-65
2023/05/12 05:54:53;;;;;;;6.28;3.42;;;;;;;13.52;84.93;100419.19;5039542;28;20035;-64
2023/05/12 05:57:18;;;;;;;6.00;3.65;;;;;;;13.52;84.53;100418.34;5039989;28;20072;-65
2023/05/12 05:59:44;;;;;;;5.85;3.20;;;;;;;13.49;84.39;100411.53;5038960;28;20038;-65
2023/05/12 06:02:09;;;;;;;6.28;3.88;;;;;;;13.62;85.15;100413.75;5039511;28;20048;-65
2023/05/12 06:04:35;;;;;;;4.00;2.83;;;;;;;13.71;84.48;100416.25;5038980;28;20316;-64
2023/05/12 06:07:00;;;;;;;4.90;3.38;;;;;;;13.98;82.57;100417.72;5038673;28;20205;-62
2023/05/12 06:09:26;;;;;;;6.05;3.47;;;;;;;13.79;83.81;100423.38;5038144;28;20377;-62
2023/05/12 06:11:51;;;;;;;7.05;3.33;;;;;;;14.27;81.29;100414.53;5038328;28;20041;-63
2023/05/12 06:14:17;;;;;;;5.68;3.80;;;;;;;14.48;80.71;100418.50;5038357;28;20045;-63
2023/05/12 06:16:42;;;;;;;6.13;3.60;;;;;;;14.55;79.75;100430.16;5038301;28;20025;-63
2023/05/12 06:19:08;;;;;;;4.63;3.40;;;;;;;14.73;79.88;100428.13;5038224;28;20201;-63
2023/05/12 06:21:33;;;;;;;4.60;3.50;;;;;;;14.67;78.91;100431.47;5038042;28;20255;-63
2023/05/12 06:23:59;;;;;;;6.45;3.90;;;;;;;14.69;79.06;100437.47;5038139;28;20094;-63
2023/05/12 06:26:24;;;;;;;4.72;4.25;;;;;;;14.61;78.55;100433.00;5038030;28;20037;-66
2023/05/12 06:28:50;;;;;;;4.40;3.75;;;;;;;14.80;77.76;100442.41;5038859;28;20249;-62
2023/05/12 06:31:15;;;;;;;6.15;4.50;;;;;;;14.80;79.32;100437.09;5036813;28;20064;-65
2023/05/12 06:33:41;;;;;;;8.40;4.15;;;;;;;14.75;76.57;100442.09;5035574;28;20104;-63
2023/05/12 06:36:07;;;;;;;6.45;3.67;;;;;;;15.07;76.87;100429.63;5033225;28;20306;-64
2023/05/12 06:38:33;;;;;;;6.78;4.10;;;;;;;15.31;75.28;100433.00;5032052;28;20030;-67
2023/05/12 06:40:58;;;;;;;5.00;4.00;;;;;;;15.04;76.56;100438.81;5032985;28;20349;-64
2023/05/12 06:43:24;;;;;;;5.00;4.50;;;;;;;15.27;74.37;100431.69;5030778;28;20327;-63
2023/05/12 06:45:50;;;;;;;4.60;4.05;;;;;;;15.10;75.64;100435.44;5031458;28;20265;-63
2023/05/12 06:48:15;;;;;;;4.95;4.30;;;;;;;15.07;74.97;100437.63;5030668;28;20041;-67
2023/05/12 06:50:41;;;;;;;6.80;5.05;;;;;;;15.22;75.13;100431.38;5032559;28;20041;-63
2023/05/12 06:53:06;;;;;;;6.30;5.47;;;;;;;15.20;76.55;100422.72;5031949;28;20056;-64
2023/05/12 06:55:33;;;;;;;7.57;4.57;;;;;;;15.34;78.23;100431.81;5032434;28;20033;-67
2023/05/12 06:57:58;;;;;;;6.80;4.20;;;;;;;15.37;74.22;100425.31;5031472;28;20350;-67
2023/05/12 07:00:25;;;;;;;5.03;4.47;;;;;;;15.78;72.35;100426.72;5031790;28;20068;-67
2023/05/12 07:02:51;;;;;;;5.63;3.50;;;;;;;15.53;77.04;100431.34;5032104;28;20040;-67
2023/05/12 07:05:17;;;;;;;4.63;3.22;;;;;;;15.47;74.68;100428.56;5031535;28;20108;-67
2023/05/12 07:07:43;;;;;;;4.53;4.13;;;;;;;15.90;73.56;100432.47;5033374;28;20040;-63
2023/05/12 07:10:09;;;;;;;4.40;3.20;;;;;;;15.78;70.10;100432.06;5031656;28;20057;-63
2023/05/12 07:12:36;;;;;;;5.40;3.53;;;;;;;15.37;72.93;100417.28;5033362;28;20088;-67
2023/05/12 07:15:01;;;;;;;6.25;3.60;;;;;;;15.02;73.45;100425.66;5030889;28;20039;-67
2023/05/12 07:17:27;;;;;;;5.65;4.18;;;;;;;15.07;74.00;100419.81;5032521;28;20061;-67
2023/05/12 07:19:53;;;;;;;6.35;3.78;;;;;;;14.80;75.94;100426.44;5031728;28;20296;-67
2023/05/12 07:22:19;;;;;;;4.68;4.18;;;;;;;15.14;74.88;100422.59;5031493;28;20041;-67
2023/05/12 07:24:45;;;;;;;4.55;3.67;;;;;;;15.32;74.22;100432.00;5032036;28;20045;-63
2023/05/12 07:27:10;;;;;;;3.70;3.17;;;;;;;15.27;68.86;100425.53;5032633;28;20263;-67
2023/05/12 07:29:36;;;;;;;5.95;3.30;;;;;;;15.29;70.47;100428.84;5031885;28;20046;-63
2023/05/12 07:32:02;;;;;;;5.18;3.70;;;;;;;15.21;72.75;100431.56;5032463;28;20666;-68
2023/05/12 07:34:27;;;;;;;4.05;2.90;;;;;;;14.83;71.60;100433.25;5032514;28;20033;-67
2023/05/12 07:36:53;;;;;;;3.30;3.00;;;;;;;14.64;70.32;100421.16;5031223;28;20080;-63
2023/05/12 07:39:22;;;;;;;3.72;3.33;;;;;;;14.86;71.96;100430.22;5032128;28;20068;-67
2023/05/12 07:41:49;;;;;;;6.22;3.33;;;;;;;14.91;72.43;100430.53;5031197;28;20304;-67
2023/05/12 07:44:15;;;;;;;9.43;3.65;;;;;;;14.91;71.85;100431.38;5031620;28;20033;-63
2023/05/12 07:46:40;;;;;;;4.57;3.20;;;;;;;14.92;72.03;100429.53;5031130;28;20048;-64
2023/05/12 07:49:06;;;;;;;6.90;3.38;;;;;;;15.06;73.01;100430.63;5032078;28;20063;-67
2023/05/12 07:51:32;;;;;;;5.80;3.58;;;;;;;15.21;73.24;100432.41;5031337;28;20033;-64
2023/05/12 07:53:57;;;;;;;4.60;3.10;;;;;;;15.38;70.31;100425.13;5032949;28;20370;-64
2023/05/12 07:56:23;;;;;;;4.88;3.45;;;;;;;15.48;69.33;100417.72;5035101;28;20069;-65
2023/05/12 07:58:49;;;;;;;4.70;3.38;;;;;;;15.36;68.25;100418.31;5036470;28;20037;-64
2023/05/12 08:01:14;;;;;;;5.28;2.80;;;;;;;15.65;65.51;100415.81;5036515;28;20034;-67
2023/05/12 08:03:40;;;;;;;4.05;2.72;;;;;;;15.38;63.67;100418.94;5035830;28;20040;-67
2023/05/12 08:06:06;;;;;;;3.80;2.65;;;;;;;15.91;63.88;100418.13;5035862;28;20045;-64
2023/05/12 08:08:32;;;;;;;4.38;2.90;;;;;;;16.45;63.12;100410.72;5035333;28;20065;-64
2023/05/12 08:10:58;;;;;;;3.50;2.83;;;;;;;16.26;66.42;100412.09;5035472;28;20045;-67
2023/05/12 08:13:25;;;;;;;4.15;2.55;;;;;;;15.82;66.10;100416.53;5035579;28;20029;-63
2023/05/12 08:15:51;;;;;;;4.93;3.50;;;;;;;15.52;63.35;100413.69;5036627;28;20042;-67
2023/05/12 08:18:16;;;;;;;3.90;3.20;;;;;;;15.62;66.64;100413.50;5035390;28;20068;-64
2023/05/12 08:20:42;;;;;;;4.53;3.17;;;;;;;15.68;64.90;100414.63;5036298;28;20361;-67
2023/05/12 08:23:08;;;;;;;4.43;2.80;;;;;;;16.25;64.50;100414.97;5036058;28;20029;-64
2023/05/12 08:25:35;;;;;;;4.05;2.90;;;;;;;16.46;64.13;100406.22;5035722;28;20068;-65
2023/05/12 08:28:00;;;;;;;4.18;3.08;;;;;;;16.57;62.76;100406.59;5036155;28;20826;-67
2023/05/12 08:30:26;;;;;;;4.50;3.20;;;;;;;16.37;62.90;100412.66;5034702;28;20030;-63
2023/05/12 08:32:53;;;;;;;5.10;3.72;;;;;;;16.01;59.60;100415.19;5035322;28;20979;-68
2023/05/12 08:35:19;;;;;;;4.70;3.30;;;;;;;16.46;60.30;100416.91;5034865;28;20048;-67
2023/05/12 08:37:45;;;;;;;5.82;2.90;;;;;;;16.83;58.91;100406.16;5036528;28;20297;-64
2023/05/12 08:40:22;;;;;;;3.00;2.28;;;;;;;17.23;55.72;100409.31;5035222;28;20060;-64
2023/05/12 08:43:15;;;;;;;2.65;1.90;;;;;;;16.70;54.75;100410.50;5035380;28;20037;-67
2023/05/12 08:45:41;;;;;;;4.28;1.98;;;;;;;17.27;55.83;100410.59;5037257;28;20452;-67
2023/05/12 08:48:09;;;;;;;2.42;2.10;;;;;;;17.37;55.26;100415.63;5032797;28;20041;-64
2023/05/12 08:50:37;;;;;;;4.65;2.30;;;;;;;17.33;54.52;100409.00;5034874;28;20037;-63
2023/05/12 08:53:09;;;;;;;2.88;2.03;;;;;;;17.38;52.84;100412.78;5033795;28;20816;-67
2023/05/12 08:55:35;;;;;;;2.80;2.07;;;;;;;17.33;55.95;100406.31;5035654;28;20069;-65
2023/05/12 08:58:02;;;;;;;2.38;2.03;;;;;;;17.09;53.83;100402.16;5035432;28;20688;-64
2023/05/12 09:00:29;;;;;;;2.28;2.08;;;;;;;16.97;55.64;100409.00;5034486;28;20037;-67
2023/05/12 09:02:58;;;;;;;2.88;2.03;;;;;;;17.12;52.95;100401.78;5034261;28;20473;-64
2023/05/12 09:05:26;;;;;;;2.75;1.80;;;;;;;17.22;54.42;100399.63;5033489;28;20049;-67
2023/05/12 09:07:53;;;;;;;3.35;2.30;;;;;;;17.07;55.15;100406.88;5034682;28;20215;-67
2023/05/12 09:10:20;;;;;;;3.83;2.25;;;;;;;17.31;53.41;100409.19;5034157;28;20037;-67
2023/05/12 09:12:46;;;;;;;2.88;2.20;;;;;;;17.28;54.41;100393.50;5035565;28;20033;-64
2023/05/12 09:15:18;;;;;;;3.22;2.30;;;;;;;17.56;53.17;100402.44;5035734;28;20033;-67
2023/05/12 09:17:44;;;;;;;4.72;2.80;;;;;;;17.45;50.58;100397.59;5037243;28;20046;-67
2023/05/12 09:20:11;;;;;;;2.60;2.30;;;;;;;16.88;54.23;100403.75;5038572;28;20095;-65
2023/05/12 09:22:38;;;;;;;4.22;3.22;;;;;;;16.70;50.79;100400.66;5038661;28;20044;-65
2023/05/12 09:25:17;;;;;;;4.00;3.40;;;;;;;16.60;52.37;100394.69;5038626;28;20350;-63
2023/05/12 09:27:46;;;;;;;3.50;2.67;;;;;;;17.01;52.38;100397.75;5039255;28;20067;-64
2023/05/12 09:30:12;;;;;;;4.30;2.78;;;;;;;17.23;53.68;100395.94;5038348;28;20083;-64
2023/05/12 09:32:38;;;;;;;4.53;2.40;;;;;;;17.26;51.68;100395.56;5038465;28;20037;-64
2023/05/12 09:35:10;;;;;;;6.10;3.13;;;;;;;17.05;51.70;100390.16;5038582;28;20037;-67
2023/05/12 09:37:37;;;;;;;4.60;2.50;;;;;;;17.17;52.85;100394.00;5038139;28;20316;-67
2023/05/12 09:40:05;;;;;;;3.58;2.42;;;;;;;17.23;51.59;100390.56;5037873;28;20055;-64
2023/05/12 09:42:32;;;;;;;3.15;2.40;;;;;;;16.81;51.35;100388.66;5038457;28;20035;-64
2023/05/12 09:45:03;;;;;;;3.22;2.40;;;;;;;16.55;54.49;100387.22;5038356;28;20049;-64
2023/05/12 09:47:36;;;;;;;4.68;2.80;;;;;;;16.33;54.13;100381.97;5039037;28;20303;-64
2023/05/12 09:50:03;;;;;;;4.03;2.97;;;;;;;16.40;55.47;100375.72;5038092;28;20048;-67
2023/05/12 09:52:31;;;;;;;3.15;2.70;;;;;;;16.43;52.65;100377.19;5038124;28;20040;-67
2023/05/12 09:55:12;;;;;;;3.20;2.30;;;;;;;16.50;51.43;100375.44;5038077;28;20121;-67
2023/05/12 09:57:40;;;;;;;3.78;2.50;;;;;;;16.41;50.00;100382.72;5037574;28;20044;-67
2023/05/12 10:00:10;;;;;;;4.35;2.95;;;;;;;16.59;56.53;100380.50;5038221;28;20041;-64
2023/05/12 10:02:39;;;;;;;3.65;2.80;;;;;;;16.24;51.24;100376.72;5038306;28;20087;-64
2023/05/12 10:05:07;;;;;;;3.42;2.03;;;;;;;16.26;55.79;100361.31;5038020;28;20044;-67
2023/05/12 10:07:33;;;;;;;2.88;2.47;;;;;;;16.36;51.15;100366.41;5037682;28;20037;-67
2023/05/12 10:10:01;;;;;;;3.88;2.22;;;;;;;16.46;52.15;100360.78;5034979;28;20370;-67
2023/05/12 10:12:27;;;;;;;4.22;2.67;;;;;;;16.71;52.82;100380.09;5033362;28;20077;-65
2023/05/12 10:14:55;;;;;;;2.55;2.30;;;;;;;16.97;53.39;100368.88;5033998;28;20033;-67
2023/05/12 10:17:21;;;;;;;3.13;2.38;;;;;;;17.09;53.24;100383.41;5034167;28;20356;-64
2023/05/12 10:19:48;;;;;;;2.60;2.20;;;;;;;16.76;52.79;100375.00;5033646;28;20343;-64
2023/05/12 10:22:16;;;;;;;3.92;2.13;;;;;;;16.74;51.31;100361.00;5033487;28;20074;-67
2023/05/12 10:24:41;;;;;;;3.70;2.70;;;;;;;16.64;52.06;100366.56;5032528;28;20097;-67
2023/05/12 10:27:07;;;;;;;3.45;2.55;;;;;;;16.58;50.94;100378.00;5032543;28;20068;-67
2023/05/12 10:29:34;;;;;;;4.05;2.70;;;;;;;16.72;51.18;100353.16;5033668;28;20041;-67
2023/05/12 10:32:02;;;;;;;3.42;2.75;;;;;;;16.83;56.03;100366.03;5032266;28;20045;-67
2023/05/12 10:34:36;;;;;;;4.68;2.60;;;;;;;16.69;52.40;100364.22;5033462;28;20405;-67
2023/05/12 10:37:07;;;;;;;3.05;2.20;;;;;;;16.56;51.19;100361.31;5032883;28;20268;-63
2023/05/12 10:39:33;;;;;;;2.75;2.30;;;;;;;16.63;56.76;100354.22;5031957;28;20041;-67
2023/05/12 10:42:08;;;;;;;2.85;1.77;;;;;;;16.52;52.79;100344.00;5032385;28;20354;-64
2023/05/12 10:44:35;;;;;;;3.05;2.08;;;;;;;16.52;52.23;100357.34;5032713;28;20080;-67
2023/05/12 10:47:01;;;;;;;2.63;2.17;;;;;;;16.57;50.63;100350.44;5032063;28;20319;-63
2023/05/12 10:49:38;;;;;;;2.20;1.77;;;;;;;16.36;53.13;100355.72;5032719;28;20044;-67
2023/05/12 10:52:03;;;;;;;2.60;1.58;;;;;;;16.26;50.60;100357.81;5032467;28;20038;-64
2023/05/12 10:54:36;;;;;;;3.15;1.70;;;;;;;16.17;49.93;100338.38;5031942;28;20348;-67
2023/05/12 10:57:01;;;;;;;2.25;2.05;;;;;;;16.32;52.21;100343.72;5032855;28;20029;-67
2023/05/12 10:59:27;;;;;;;2.05;1.95;;;;;;;16.60;54.37;100344.72;5031376;28;20323;-67
2023/05/12 11:02:15;;;;;;;2.90;1.92;;;;;;;16.55;51.79;100336.44;5032878;28;20029;-67
2023/05/12 11:04:54;;;;;;;3.20;2.15;;;;;;;16.54;50.68;100356.16;5031194;28;20037;-64
2023/05/12 11:07:38;;;;;;;3.45;2.05;;;;;;;16.56;49.43;100342.59;5032048;28;20091;-67
2023/05/12 11:10:04;;;;;;;3.85;2.20;;;;;;;16.57;55.45;100334.41;5033118;28;20037;-67
2023/05/12 11:12:31;;;;;;;3.28;2.10;;;;;;;16.78;54.03;100336.38;5032389;28;20258;-67
2023/05/12 11:14:59;;;;;;;3.42;2.10;;;;;;;16.87;51.78;100334.41;5033242;28;20343;-67
2023/05/12 11:17:25;;;;;;;4.22;2.40;;;;;;;16.75;50.59;100330.56;5032226;28;20377;-67
2023/05/12 11:19:51;;;;;;;4.10;2.50;;;;;;;16.51;52.09;100326.28;5032113;28;20041;-67
2023/05/12 11:22:19;;;;;;;3.05;2.33;;;;;;;16.40;53.80;100337.47;5031898;28;20037;-67